sensor_id;sensor_type;location;lat;lon;timestamp;temperature;humidity
7248;DHT22;3665;51.034;13.642;2023-08-01T00:04:02;16.90;1.00
7248;DHT22;3665;51.034;13.642;2023-08-01T00:14:21;16.70;1.00
7248;DHT22;3665;51.034;13.642;2023-08-01T00:19:18;16.70;1.00
7248;DHT22;3665;51.034;13.642;2023-08-01T00:24:05;16.80;1.00
7248;DHT22;3665;51.034;13.642;2023-08-01T00:28:52;16.80;1.00
7248;DHT22;3665;51.034;13.642;2023-08-01T00:33:41;16.90;1.00
7248;DHT22;3665;51.034;13.642;2023-08-01T00:38:36;16.80;1.00
7248;DHT22;3665;51.034;13.642;2023-08-01T00:43:24;16.90;1.00
7248;DHT22;3665;51.034;13.642;2023-08-01T00:48:12;16.90;1.00
7248;DHT22;3665;51.034;13.642;2023-08-01T00:53:12;17.00;1.00
7248;DHT22;3665;51.034;13.642;2023-08-01T00:57:55;17.00;1.00
7248;DHT22;3665;51.034;13.642;2023-08-01T01:02:45;17.00;1.00
7248;DHT22;3665;51.034;13.642;2023-08-01T01:07:31;17.10;1.00
7248;DHT22;3665;51.034;13.642;2023-08-01T01:12:20;17.20;1.00
7248;DHT22;3665;51.034;13.642;2023-08-01T01:17:13;17.20;1.00
7248;DHT22;3665;51.034;13.642;2023-08-01T01:21:58;17.30;1.00
7248;DHT22;3665;51.034;13.642;2023-08-01T01:26:46;17.40;1.00
7248;DHT22;3665;51.034;13.642;2023-08-01T01:31:32;17.50;1.00
7248;DHT22;3665;51.034;13.642;2023-08-01T01:36:19;17.60;1.00
7248;DHT22;3665;51.034;13.642;2023-08-01T01:41:12;17.60;1.00
7248;DHT22;3665;51.034;13.642;2023-08-01T01:45:55;17.60;1.00
7248;DHT22;3665;51.034;13.642;2023-08-01T01:50:44;17.60;1.00
7248;DHT22;3665;51.034;13.642;2023-08-01T01:55:34;17.60;1.00
7248;DHT22;3665;51.034;13.642;2023-08-01T02:00:36;17.50;1.00
7248;DHT22;3665;51.034;13.642;2023-08-01T02:05:24;17.30;1.00
7248;DHT22;3665;51.034;13.642;2023-08-01T02:10:12;16.90;1.00
7248;DHT22;3665;51.034;13.642;2023-08-01T02:15:00;16.70;1.00
7248;DHT22;3665;51.034;13.642;2023-08-01T02:20:06;16.50;55.20
7248;DHT22;3665;51.034;13.642;2023-08-01T02:24:59;16.30;99.90
7248;DHT22;3665;51.034;13.642;2023-08-01T02:30:35;16.10;1.00
7248;DHT22;3665;51.034;13.642;2023-08-01T02:36:37;16.00;1.00
7248;DHT22;3665;51.034;13.642;2023-08-01T02:41:41;16.00;99.90
7248;DHT22;3665;51.034;13.642;2023-08-01T02:46:49;15.90;1.00
7248;DHT22;3665;51.034;13.642;2023-08-01T02:51:39;15.80;99.90
7248;DHT22;3665;51.034;13.642;2023-08-01T03:02:31;15.80;1.00
7248;DHT22;3665;51.034;13.642;2023-08-01T03:07:34;15.80;99.90
7248;DHT22;3665;51.034;13.642;2023-08-01T03:12:19;15.80;99.90
7248;DHT22;3665;51.034;13.642;2023-08-01T03:17:09;15.70;1.00
7248;DHT22;3665;51.034;13.642;2023-08-01T03:22:17;15.70;1.00
7248;DHT22;3665;51.034;13.642;2023-08-01T03:27:20;15.70;1.00
7248;DHT22;3665;51.034;13.642;2023-08-01T03:32:13;15.70;99.90
7248;DHT22;3665;51.034;13.642;2023-08-01T03:37:09;15.80;99.90
7248;DHT22;3665;51.034;13.642;2023-08-01T03:41:58;15.70;99.90
7248;DHT22;3665;51.034;13.642;2023-08-01T03:46:47;15.70;1.00
7248;DHT22;3665;51.034;13.642;2023-08-01T03:51:35;15.80;99.90
7248;DHT22;3665;51.034;13.642;2023-08-01T03:56:23;15.80;27.70
7248;DHT22;3665;51.034;13.642;2023-08-01T04:01:09;15.90;99.90
7248;DHT22;3665;51.034;13.642;2023-08-01T04:05:57;16.00;18.10
7248;DHT22;3665;51.034;13.642;2023-08-01T04:10:44;16.10;1.00
7248;DHT22;3665;51.034;13.642;2023-08-01T04:15:34;16.10;1.00
7248;DHT22;3665;51.034;13.642;2023-08-01T04:20:20;16.20;99.90
7248;DHT22;3665;51.034;13.642;2023-08-01T04:25:08;16.20;99.90
7248;DHT22;3665;51.034;13.642;2023-08-01T04:29:56;16.20;99.90
7248;DHT22;3665;51.034;13.642;2023-08-01T04:34:49;16.20;99.90
7248;DHT22;3665;51.034;13.642;2023-08-01T04:39:34;16.30;99.90
7248;DHT22;3665;51.034;13.642;2023-08-01T04:55:18;16.80;99.90
7248;DHT22;3665;51.034;13.642;2023-08-01T05:00:05;16.90;90.90
7248;DHT22;3665;51.034;13.642;2023-08-01T05:04:51;16.90;99.90
7248;DHT22;3665;51.034;13.642;2023-08-01T05:09:45;16.80;99.90
7248;DHT22;3665;51.034;13.642;2023-08-01T05:14:46;16.80;99.90
7248;DHT22;3665;51.034;13.642;2023-08-01T05:19:33;16.70;99.90
7248;DHT22;3665;51.034;13.642;2023-08-01T05:25:07;16.70;99.90
7248;DHT22;3665;51.034;13.642;2023-08-01T05:41:09;16.60;1.00
7248;DHT22;3665;51.034;13.642;2023-08-01T05:45:55;16.60;1.00
7248;DHT22;3665;51.034;13.642;2023-08-01T05:50:46;16.60;60.20
7248;DHT22;3665;51.034;13.642;2023-08-01T05:55:32;16.60;1.00
7248;DHT22;3665;51.034;13.642;2023-08-01T06:11:18;17.10;1.00
7248;DHT22;3665;51.034;13.642;2023-08-01T06:16:04;17.30;99.90
7248;DHT22;3665;51.034;13.642;2023-08-01T06:32:11;17.50;99.90
7248;DHT22;3665;51.034;13.642;2023-08-01T06:37:24;17.40;99.90
7248;DHT22;3665;51.034;13.642;2023-08-01T07:33:11;18.60;99.90
7248;DHT22;3665;51.034;13.642;2023-08-01T08:00:36;18.70;69.90
7248;DHT22;3665;51.034;13.642;2023-08-01T08:06:00;19.00;49.30
7248;DHT22;3665;51.034;13.642;2023-08-01T08:10:47;19.40;1.00
7248;DHT22;3665;51.034;13.642;2023-08-01T08:16:07;19.50;1.00
7248;DHT22;3665;51.034;13.642;2023-08-01T08:21:24;19.60;1.00
7248;DHT22;3665;51.034;13.642;2023-08-01T08:26:17;19.80;1.00
7248;DHT22;3665;51.034;13.642;2023-08-01T08:31:04;19.90;1.00
7248;DHT22;3665;51.034;13.642;2023-08-01T08:35:49;19.70;1.00
7248;DHT22;3665;51.034;13.642;2023-08-01T08:40:40;19.50;1.00
7248;DHT22;3665;51.034;13.642;2023-08-01T08:45:26;19.50;1.00
7248;DHT22;3665;51.034;13.642;2023-08-01T08:50:13;19.60;1.00
7248;DHT22;3665;51.034;13.642;2023-08-01T08:55:03;19.70;1.00
7248;DHT22;3665;51.034;13.642;2023-08-01T08:59:49;19.60;1.00
7248;DHT22;3665;51.034;13.642;2023-08-01T09:04:36;19.60;1.00
7248;DHT22;3665;51.034;13.642;2023-08-01T09:09:40;19.70;1.00
7248;DHT22;3665;51.034;13.642;2023-08-01T09:14:29;19.70;1.00
7248;DHT22;3665;51.034;13.642;2023-08-01T09:19:17;19.30;1.00
7248;DHT22;3665;51.034;13.642;2023-08-01T09:24:11;19.00;1.00
7248;DHT22;3665;51.034;13.642;2023-08-01T09:29:29;18.80;1.00
7248;DHT22;3665;51.034;13.642;2023-08-01T09:34:29;19.00;1.00
7248;DHT22;3665;51.034;13.642;2023-08-01T09:39:22;18.80;1.00
7248;DHT22;3665;51.034;13.642;2023-08-01T09:44:16;19.00;1.00
7248;DHT22;3665;51.034;13.642;2023-08-01T09:49:10;19.10;1.00
7248;DHT22;3665;51.034;13.642;2023-08-01T09:53:56;19.40;1.00
7248;DHT22;3665;51.034;13.642;2023-08-01T09:58:46;19.50;1.00
7248;DHT22;3665;51.034;13.642;2023-08-01T10:03:33;19.70;1.00
7248;DHT22;3665;51.034;13.642;2023-08-01T10:08:22;19.60;1.00
7248;DHT22;3665;51.034;13.642;2023-08-01T10:13:09;19.80;1.00
7248;DHT22;3665;51.034;13.642;2023-08-01T10:17:56;19.50;1.00
7248;DHT22;3665;51.034;13.642;2023-08-01T10:22:43;19.90;1.00
7248;DHT22;3665;51.034;13.642;2023-08-01T10:27:32;20.10;1.00
7248;DHT22;3665;51.034;13.642;2023-08-01T10:32:19;20.20;1.00
7248;DHT22;3665;51.034;13.642;2023-08-01T10:37:09;20.60;1.00
7248;DHT22;3665;51.034;13.642;2023-08-01T10:42:00;21.20;1.00
7248;DHT22;3665;51.034;13.642;2023-08-01T10:46:50;21.70;1.00
7248;DHT22;3665;51.034;13.642;2023-08-01T10:51:35;22.10;1.00
7248;DHT22;3665;51.034;13.642;2023-08-01T10:56:19;22.40;1.00
7248;DHT22;3665;51.034;13.642;2023-08-01T11:01:08;22.80;1.00
7248;DHT22;3665;51.034;13.642;2023-08-01T11:06:06;23.00;1.00
7248;DHT22;3665;51.034;13.642;2023-08-01T11:11:00;22.80;1.00
7248;DHT22;3665;51.034;13.642;2023-08-01T11:15:48;22.90;1.00
7248;DHT22;3665;51.034;13.642;2023-08-01T11:20:38;22.50;1.00
7248;DHT22;3665;51.034;13.642;2023-08-01T11:25:41;22.50;1.00
7248;DHT22;3665;51.034;13.642;2023-08-01T11:30:32;22.70;1.00
7248;DHT22;3665;51.034;13.642;2023-08-01T11:35:17;23.10;1.00
7248;DHT22;3665;51.034;13.642;2023-08-01T11:40:04;22.90;1.00
7248;DHT22;3665;51.034;13.642;2023-08-01T11:44:52;22.90;1.00
7248;DHT22;3665;51.034;13.642;2023-08-01T11:49:47;22.80;1.00
7248;DHT22;3665;51.034;13.642;2023-08-01T11:54:44;22.60;1.00
7248;DHT22;3665;51.034;13.642;2023-08-01T11:59:51;22.00;1.00
7248;DHT22;3665;51.034;13.642;2023-08-01T12:04:35;21.50;1.00
7248;DHT22;3665;51.034;13.642;2023-08-01T12:09:56;21.10;1.00
7248;DHT22;3665;51.034;13.642;2023-08-01T12:15:07;19.70;1.00
7248;DHT22;3665;51.034;13.642;2023-08-01T12:26:29;17.20;1.00
7248;DHT22;3665;51.034;13.642;2023-08-01T12:31:38;16.80;99.90
7248;DHT22;3665;51.034;13.642;2023-08-01T12:36:51;16.60;1.00
7248;DHT22;3665;51.034;13.642;2023-08-01T13:04:10;17.60;1.00
7248;DHT22;3665;51.034;13.642;2023-08-01T13:09:16;18.10;99.90
7248;DHT22;3665;51.034;13.642;2023-08-01T13:14:31;18.90;99.90
7248;DHT22;3665;51.034;13.642;2023-08-01T13:57:12;20.90;1.00
7248;DHT22;3665;51.034;13.642;2023-08-01T14:07:36;20.40;1.00
7248;DHT22;3665;51.034;13.642;2023-08-01T14:12:59;20.60;1.00
7248;DHT22;3665;51.034;13.642;2023-08-01T14:18:02;20.90;1.00
7248;DHT22;3665;51.034;13.642;2023-08-01T14:22:57;21.10;1.00
7248;DHT22;3665;51.034;13.642;2023-08-01T14:51:09;22.30;1.00
7248;DHT22;3665;51.034;13.642;2023-08-01T14:55:58;22.40;1.00
7248;DHT22;3665;51.034;13.642;2023-08-01T15:00:50;22.00;1.00
7248;DHT22;3665;51.034;13.642;2023-08-01T15:05:44;22.10;1.00
7248;DHT22;3665;51.034;13.642;2023-08-01T15:10:55;22.10;1.00
7248;DHT22;3665;51.034;13.642;2023-08-01T15:15:54;21.80;1.00
7248;DHT22;3665;51.034;13.642;2023-08-01T15:21:31;21.50;1.00
7248;DHT22;3665;51.034;13.642;2023-08-01T15:26:17;21.70;1.00
7248;DHT22;3665;51.034;13.642;2023-08-01T15:31:05;21.10;1.00
7248;DHT22;3665;51.034;13.642;2023-08-01T15:36:13;20.50;1.00
7248;DHT22;3665;51.034;13.642;2023-08-01T15:40:57;20.30;1.00
7248;DHT22;3665;51.034;13.642;2023-08-01T15:45:45;20.00;1.00
7248;DHT22;3665;51.034;13.642;2023-08-01T15:50:54;20.00;1.00
7248;DHT22;3665;51.034;13.642;2023-08-01T15:55:38;20.30;1.00
7248;DHT22;3665;51.034;13.642;2023-08-01T16:00:26;20.80;1.00
7248;DHT22;3665;51.034;13.642;2023-08-01T16:05:14;21.50;1.00
7248;DHT22;3665;51.034;13.642;2023-08-01T16:10:02;21.40;1.00
7248;DHT22;3665;51.034;13.642;2023-08-01T16:14:50;21.00;1.00
7248;DHT22;3665;51.034;13.642;2023-08-01T16:19:37;21.40;1.00
7248;DHT22;3665;51.034;13.642;2023-08-01T16:24:33;21.90;1.00
7248;DHT22;3665;51.034;13.642;2023-08-01T16:29:28;22.20;1.00
7248;DHT22;3665;51.034;13.642;2023-08-01T16:34:17;21.80;1.00
7248;DHT22;3665;51.034;13.642;2023-08-01T16:39:01;21.30;1.00
7248;DHT22;3665;51.034;13.642;2023-08-01T16:43:58;20.80;1.00
7248;DHT22;3665;51.034;13.642;2023-08-01T16:48:47;20.60;1.00
7248;DHT22;3665;51.034;13.642;2023-08-01T16:53:37;20.60;1.00
7248;DHT22;3665;51.034;13.642;2023-08-01T16:58:21;20.40;1.00
7248;DHT22;3665;51.034;13.642;2023-08-01T17:03:13;20.20;1.00
7248;DHT22;3665;51.034;13.642;2023-08-01T17:07:57;20.00;1.00
7248;DHT22;3665;51.034;13.642;2023-08-01T17:12:43;19.90;1.00
7248;DHT22;3665;51.034;13.642;2023-08-01T17:17:26;19.80;1.00
7248;DHT22;3665;51.034;13.642;2023-08-01T17:22:25;19.70;1.00
7248;DHT22;3665;51.034;13.642;2023-08-01T17:27:11;19.80;1.00
7248;DHT22;3665;51.034;13.642;2023-08-01T17:31:58;19.80;1.00
7248;DHT22;3665;51.034;13.642;2023-08-01T17:36:42;19.90;1.00
7248;DHT22;3665;51.034;13.642;2023-08-01T17:41:37;20.00;1.00
7248;DHT22;3665;51.034;13.642;2023-08-01T17:46:35;20.00;1.00
7248;DHT22;3665;51.034;13.642;2023-08-01T17:51:28;19.90;1.00
7248;DHT22;3665;51.034;13.642;2023-08-01T17:56:12;19.60;1.00
7248;DHT22;3665;51.034;13.642;2023-08-01T18:01:03;19.30;1.00
7248;DHT22;3665;51.034;13.642;2023-08-01T18:05:47;19.30;1.00
7248;DHT22;3665;51.034;13.642;2023-08-01T18:10:38;19.10;1.00
7248;DHT22;3665;51.034;13.642;2023-08-01T18:15:45;18.90;1.00
7248;DHT22;3665;51.034;13.642;2023-08-01T18:20:30;18.90;1.00
7248;DHT22;3665;51.034;13.642;2023-08-01T18:25:18;18.90;1.00
7248;DHT22;3665;51.034;13.642;2023-08-01T18:30:11;18.90;1.00
7248;DHT22;3665;51.034;13.642;2023-08-01T18:34:54;18.60;1.00
7248;DHT22;3665;51.034;13.642;2023-08-01T18:39:43;18.30;1.00
7248;DHT22;3665;51.034;13.642;2023-08-01T18:44:30;17.90;1.00
7248;DHT22;3665;51.034;13.642;2023-08-01T18:49:19;17.70;1.00
7248;DHT22;3665;51.034;13.642;2023-08-01T18:54:05;17.40;1.00
7248;DHT22;3665;51.034;13.642;2023-08-01T18:59:17;17.30;1.00
7248;DHT22;3665;51.034;13.642;2023-08-01T19:04:19;17.00;1.00
7248;DHT22;3665;51.034;13.642;2023-08-01T19:09:03;16.80;1.00
7248;DHT22;3665;51.034;13.642;2023-08-01T19:14:08;16.70;1.00
7248;DHT22;3665;51.034;13.642;2023-08-01T19:18:54;16.60;1.00
7248;DHT22;3665;51.034;13.642;2023-08-01T19:23:44;16.40;1.00
7248;DHT22;3665;51.034;13.642;2023-08-01T19:28:29;16.20;1.00
7248;DHT22;3665;51.034;13.642;2023-08-01T19:33:19;16.00;1.00
7248;DHT22;3665;51.034;13.642;2023-08-01T19:38:08;15.90;1.00
7248;DHT22;3665;51.034;13.642;2023-08-01T19:42:54;15.90;1.00
7248;DHT22;3665;51.034;13.642;2023-08-01T19:47:41;15.80;1.00
7248;DHT22;3665;51.034;13.642;2023-08-01T19:52:31;15.70;1.00
7248;DHT22;3665;51.034;13.642;2023-08-01T19:57:19;15.70;1.00
7248;DHT22;3665;51.034;13.642;2023-08-01T20:02:09;15.70;1.00
7248;DHT22;3665;51.034;13.642;2023-08-01T20:06:56;15.60;1.00
7248;DHT22;3665;51.034;13.642;2023-08-01T20:11:42;15.70;1.00
7248;DHT22;3665;51.034;13.642;2023-08-01T20:16:30;15.60;1.00
7248;DHT22;3665;51.034;13.642;2023-08-01T20:21:18;15.60;1.00
7248;DHT22;3665;51.034;13.642;2023-08-01T20:26:07;15.40;1.00
7248;DHT22;3665;51.034;13.642;2023-08-01T20:30:53;15.40;1.00
7248;DHT22;3665;51.034;13.642;2023-08-01T20:35:58;15.20;1.00
7248;DHT22;3665;51.034;13.642;2023-08-01T20:40:51;15.20;1.00
7248;DHT22;3665;51.034;13.642;2023-08-01T20:45:34;15.10;1.00
7248;DHT22;3665;51.034;13.642;2023-08-01T20:50:21;15.20;1.00
7248;DHT22;3665;51.034;13.642;2023-08-01T20:55:18;15.20;1.00
7248;DHT22;3665;51.034;13.642;2023-08-01T21:00:15;15.20;1.00
7248;DHT22;3665;51.034;13.642;2023-08-01T21:05:02;15.30;1.00
7248;DHT22;3665;51.034;13.642;2023-08-01T21:09:52;15.30;1.00
7248;DHT22;3665;51.034;13.642;2023-08-01T21:14:41;15.30;1.00
7248;DHT22;3665;51.034;13.642;2023-08-01T21:19:25;15.30;1.00
7248;DHT22;3665;51.034;13.642;2023-08-01T21:24:18;15.30;1.00
7248;DHT22;3665;51.034;13.642;2023-08-01T21:29:02;15.20;1.40
7248;DHT22;3665;51.034;13.642;2023-08-01T21:33:49;15.30;10.40
7248;DHT22;3665;51.034;13.642;2023-08-01T21:38:39;15.30;8.30
7248;DHT22;3665;51.034;13.642;2023-08-01T21:43:29;15.30;1.00
7248;DHT22;3665;51.034;13.642;2023-08-01T21:48:15;15.40;1.00
7248;DHT22;3665;51.034;13.642;2023-08-01T21:53:01;15.30;1.00
7248;DHT22;3665;51.034;13.642;2023-08-01T21:57:51;15.30;1.00
7248;DHT22;3665;51.034;13.642;2023-08-01T22:02:34;15.30;1.00
7248;DHT22;3665;51.034;13.642;2023-08-01T22:07:29;15.30;1.00
7248;DHT22;3665;51.034;13.642;2023-08-01T22:12:23;15.30;1.00
7248;DHT22;3665;51.034;13.642;2023-08-01T22:17:22;15.30;1.00
7248;DHT22;3665;51.034;13.642;2023-08-01T22:22:06;15.30;1.00
7248;DHT22;3665;51.034;13.642;2023-08-01T22:26:51;15.40;1.00
7248;DHT22;3665;51.034;13.642;2023-08-01T22:31:50;15.50;1.00
7248;DHT22;3665;51.034;13.642;2023-08-01T22:36:33;15.50;1.00
7248;DHT22;3665;51.034;13.642;2023-08-01T22:41:22;15.60;1.00
7248;DHT22;3665;51.034;13.642;2023-08-01T22:46:10;15.60;1.00
7248;DHT22;3665;51.034;13.642;2023-08-01T22:50:57;15.60;1.00
7248;DHT22;3665;51.034;13.642;2023-08-01T22:55:45;15.70;1.00
7248;DHT22;3665;51.034;13.642;2023-08-01T23:00:34;15.70;1.00
7248;DHT22;3665;51.034;13.642;2023-08-01T23:05:19;15.80;1.00
7248;DHT22;3665;51.034;13.642;2023-08-01T23:10:13;15.80;1.00
7248;DHT22;3665;51.034;13.642;2023-08-01T23:14:58;15.80;1.00
7248;DHT22;3665;51.034;13.642;2023-08-01T23:19:45;15.80;1.00
7248;DHT22;3665;51.034;13.642;2023-08-01T23:24:34;15.70;1.00
7248;DHT22;3665;51.034;13.642;2023-08-01T23:29:23;15.70;1.00
7248;DHT22;3665;51.034;13.642;2023-08-01T23:34:12;15.70;1.00
7248;DHT22;3665;51.034;13.642;2023-08-01T23:38:59;15.60;1.00
7248;DHT22;3665;51.034;13.642;2023-08-01T23:43:46;15.60;1.00
7248;DHT22;3665;51.034;13.642;2023-08-01T23:48:33;15.60;1.00
7248;DHT22;3665;51.034;13.642;2023-08-01T23:53:17;15.60;1.00
7248;DHT22;3665;51.034;13.642;2023-08-01T23:58:02;15.50;1.00
